Portada
METAR-TAF:

METAR-TAF

Aeroports :

Aracaju, Sergipe, Brasil

latitud: 10-59S, longitud: 037-04W, altitud: 8 m

Observació

L'informe es va fer fa 1 hora i 7 minuts, a les 20:00 UTC
Vent 10 kt del Est/Sud-Est
Temperatura 28°C
Humitat 66%
Pressió 1011 hPa
Visibilitat 10 km o més
Escasses núvols a una alçada de 1800 ft

METAR: SBAR 132000Z 12010KT 9999 FEW018 28/21 Q1011

Hora: 18:07 (21:07 UTC)

Pronòstic

L'informe es va fer fa 5 hores i 7 minuts, a les 16:00 UTC
Pronòstic vàlid del 13 a les 18 UTC al 14 a les 18 UTC
Vent 10 kt del Sud-Est
Visibilitat 10 km o més
Escasses núvols a una alçada de 2000 ft
Evolucionant progressivament
l' 14 a les 06 UTC al 14 a les 08 UTC
Vent 8 kt del Est
Evolucionant progressivament
l' 14 a les 10 UTC al 14 a les 12 UTC
Vent 10 kt del Sud-Est

TAF: SBAR 131600Z 1318/1418 13010KT 9999 FEW020 TN26/1408Z TX30/1414Z BECMG 1406/1408 10008KT BECMG 1410/1412 13010KT RMK PEH

Observacions i pronòstics meteorològics de més de 4000 aeroports (METAR i TAF).

Les estacions disponibles són els punts grocs i vermells al mapa.

Posi el ratolí al punt desitjat per veure el nom de l'estació.

Feu clic per veure les observacions i els pronòstics meteorològics.

Per canviar el mapa: feu clic els botons verds amb una creu de color negre per apropar; al botó verd amb un guió per allunyar la imatge; o en les fletxes verdes per a mapes adjacents.


METAR-TAF: